Time;durP1;ratioP1;P1;durP2;ratioP2;P2;SDS_P1;SDS_P2;PMS_P1;PMS_P2;Temp;Humidity;BMP_temperature;BMP_pressure;BME280_temperature;BME280_humidity;BME280_pressure;Samples;Min_cycle;Max_cycle;Signal;HPM_P1;HPM_P2
2023/06/06 00:00:05;;;;;;;0.10;0.10;;;10.90;99.90;;;;;;4841661;29;20056;-80
2023/06/06 00:02:31;;;;;;;0.20;0.20;;;10.90;99.90;;;;;;4857958;29;20041;-80
2023/06/06 00:04:57;;;;;;;0.10;0.10;;;10.90;99.90;;;;;;4842471;29;20069;-80
2023/06/06 00:07:22;;;;;;;0.10;0.10;;;10.90;99.90;;;;;;4836675;29;20046;-80
2023/06/06 00:09:48;;;;;;;0.20;0.20;;;10.80;99.90;;;;;;4842765;29;20053;-79
2023/06/06 00:12:14;;;;;;;0.10;0.10;;;10.80;99.90;;;;;;4859223;29;20506;-81
2023/06/06 00:14:41;;;;;;;0.20;0.20;;;10.80;99.90;;;;;;4842319;29;20052;-80
2023/06/06 00:17:08;;;;;;;0.15;0.15;;;10.80;99.90;;;;;;4843853;29;20398;-80
2023/06/06 00:19:35;;;;;;;0.20;0.20;;;10.80;99.90;;;;;;4840705;29;20057;-81
2023/06/06 00:22:02;;;;;;;0.13;0.13;;;10.80;99.90;;;;;;4857749;29;20038;-80
2023/06/06 00:24:28;;;;;;;0.20;0.20;;;10.80;99.90;;;;;;4840172;29;20054;-80
2023/06/06 00:26:54;;;;;;;0.20;0.20;;;10.70;99.90;;;;;;4840291;29;20093;-80
2023/06/06 00:29:20;;;;;;;0.20;0.20;;;10.80;99.90;;;;;;4840677;29;20050;-79
2023/06/06 00:31:45;;;;;;;0.20;0.20;;;10.70;99.90;;;;;;4855449;29;20050;-80
2023/06/06 00:34:11;;;;;;;0.20;0.20;;;10.70;99.90;;;;;;4856945;29;20454;-80
2023/06/06 00:36:37;;;;;;;0.20;0.20;;;10.70;99.90;;;;;;4858480;29;20421;-80
2023/06/06 00:39:02;;;;;;;0.17;0.17;;;10.70;99.90;;;;;;4858969;29;20045;-80
2023/06/06 00:41:28;;;;;;;0.20;0.20;;;10.70;99.90;;;;;;4859066;29;20052;-80
2023/06/06 00:43:54;;;;;;;0.20;0.20;;;10.70;99.90;;;;;;4838340;29;20069;-80
2023/06/06 00:46:19;;;;;;;0.20;0.20;;;10.60;99.90;;;;;;4840973;29;20072;-80
2023/06/06 00:48:46;;;;;;;0.20;0.20;;;10.60;99.90;;;;;;4853011;29;20076;-80
2023/06/06 00:51:12;;;;;;;0.10;0.10;;;10.60;99.90;;;;;;4857865;29;20429;-81
2023/06/06 00:53:38;;;;;;;0.10;0.10;;;10.80;99.90;;;;;;4859061;29;20034;-81
2023/06/06 00:56:05;;;;;;;0.20;0.20;;;10.50;99.90;;;;;;4842286;29;20423;-81
2023/06/06 00:58:31;;;;;;;0.20;0.20;;;10.50;99.90;;;;;;4857081;29;20101;-81
2023/06/06 01:00:57;;;;;;;0.20;0.20;;;10.50;99.90;;;;;;4838660;29;20049;-80
2023/06/06 01:03:24;;;;;;;0.20;0.20;;;10.50;99.90;;;;;;4838407;29;20048;-81
2023/06/06 01:05:53;;;;;;;0.20;0.20;;;10.50;99.90;;;;;;4856064;29;20049;-81
2023/06/06 01:08:20;;;;;;;0.10;0.10;;;10.60;99.90;;;;;;4837585;29;20414;-80
2023/06/06 01:10:46;;;;;;;0.20;0.20;;;10.50;99.90;;;;;;4839504;29;20451;-81
2023/06/06 01:13:33;;;;;;;0.20;0.20;;;10.40;99.90;;;;;;4857402;29;20129;-81
2023/06/06 01:16:05;;;;;;;0.20;0.20;;;10.50;99.90;;;;;;4841334;29;20056;-80
2023/06/06 01:18:31;;;;;;;0.20;0.20;;;10.50;99.90;;;;;;4835249;29;20045;-80
2023/06/06 01:20:58;;;;;;;0.10;0.10;;;10.40;99.90;;;;;;4839423;29;20049;-80
2023/06/06 01:23:27;;;;;;;0.10;0.10;;;10.40;99.90;;;;;;4837975;29;20499;-81
2023/06/06 01:25:54;;;;;;;0.20;0.20;;;10.50;99.90;;;;;;4841249;29;20042;-80
2023/06/06 01:28:20;;;;;;;0.20;0.20;;;10.50;99.90;;;;;;4839171;29;20052;-81
2023/06/06 01:30:46;;;;;;;0.20;0.20;;;10.40;99.90;;;;;;4855099;29;20057;-80
2023/06/06 01:33:14;;;;;;;0.15;0.15;;;10.50;99.90;;;;;;4838656;29;20057;-81
2023/06/06 01:36:31;;;;;;;0.20;0.20;;;10.40;99.90;;;;;;4858460;29;20482;-80
2023/06/06 01:39:07;;;;;;;0.20;0.20;;;10.40;99.90;;;;;;4814651;29;20494;-81
2023/06/06 01:41:36;;;;;;;0.20;0.20;;;10.40;99.90;;;;;;4854169;29;20207;-81
2023/06/06 01:44:03;;;;;;;0.20;0.20;;;10.40;99.90;;;;;;4839124;29;20074;-81
2023/06/06 01:46:30;;;;;;;0.20;0.20;;;10.70;99.90;;;;;;4836425;29;20101;-81
2023/06/06 01:48:56;;;;;;;0.20;0.20;;;10.50;99.90;;;;;;4833495;29;20042;-81
2023/06/06 01:51:26;;;;;;;0.15;0.15;;;10.40;99.90;;;;;;4832987;29;20045;-81
2023/06/06 01:53:56;;;;;;;0.10;0.10;;;10.40;99.90;;;;;;4838668;29;20049;-81
2023/06/06 01:56:24;;;;;;;0.20;0.20;;;10.40;99.90;;;;;;4839909;29;20491;-80
2023/06/06 01:58:50;;;;;;;0.10;0.10;;;10.40;99.90;;;;;;4854432;29;20519;-80
2023/06/06 02:01:16;;;;;;;0.20;0.20;;;10.40;99.90;;;;;;4837532;29;20110;-80
2023/06/06 02:03:42;;;;;;;0.20;0.20;;;10.50;99.90;;;;;;4855164;29;20045;-81
2023/06/06 02:06:07;;;;;;;0.20;0.20;;;10.40;99.90;;;;;;4856138;29;20049;-81
2023/06/06 02:08:33;;;;;;;0.20;0.20;;;10.40;99.90;;;;;;4842573;29;20133;-81
2023/06/06 02:10:59;;;;;;;0.20;0.20;;;10.40;99.90;;;;;;4857876;29;20418;-81
2023/06/06 02:13:25;;;;;;;0.20;0.20;;;10.40;99.90;;;;;;4840128;29;20072;-81
2023/06/06 02:15:51;;;;;;;0.20;0.20;;;10.50;99.90;;;;;;4835489;29;20486;-80
2023/06/06 02:18:16;;;;;;;0.10;0.10;;;10.40;99.90;;;;;;4835990;29;20049;-81
2023/06/06 02:20:42;;;;;;;0.20;0.20;;;10.40;99.90;;;;;;4833262;29;20429;-80
2023/06/06 02:23:08;;;;;;;0.20;0.20;;;10.40;99.90;;;;;;4856477;29;20050;-81
2023/06/06 02:25:37;;;;;;;0.17;0.17;;;10.40;99.90;;;;;;4834875;29;20049;-81
2023/06/06 02:28:04;;;;;;;0.20;0.20;;;10.40;99.90;;;;;;4856638;29;20082;-81
2023/06/06 02:30:30;;;;;;;0.20;0.20;;;10.50;99.90;;;;;;4837451;29;20056;-80
2023/06/06 02:32:56;;;;;;;0.20;0.20;;;10.50;99.90;;;;;;4857071;29;20488;-80
2023/06/06 02:35:22;;;;;;;0.20;0.20;;;10.50;99.90;;;;;;4857216;29;20759;-81
2023/06/06 02:37:48;;;;;;;0.20;0.20;;;10.50;99.90;;;;;;4840935;29;20109;-81
2023/06/06 02:40:17;;;;;;;0.85;0.50;;;10.50;99.90;;;;;;4857499;29;20133;-80
2023/06/06 02:42:42;;;;;;;0.10;0.10;;;10.50;99.90;;;;;;4854520;29;20208;-81
2023/06/06 02:45:09;;;;;;;0.10;0.10;;;10.50;99.90;;;;;;4857129;29;20045;-81
2023/06/06 02:47:36;;;;;;;0.20;0.20;;;10.50;99.90;;;;;;4840649;29;20050;-80
2023/06/06 02:50:03;;;;;;;0.20;0.20;;;10.50;99.90;;;;;;4831507;29;20050;-81
2023/06/06 02:52:31;;;;;;;0.20;0.20;;;10.50;99.90;;;;;;4839506;29;20102;-81
2023/06/06 02:54:57;;;;;;;0.15;0.15;;;10.50;99.90;;;;;;4840785;29;20049;-80
2023/06/06 02:57:23;;;;;;;0.20;0.20;;;11.20;99.90;;;;;;4857177;29;20045;-80
2023/06/06 02:59:49;;;;;;;0.20;0.20;;;10.50;99.90;;;;;;4838960;29;20109;-81
2023/06/06 03:02:15;;;;;;;0.20;0.20;;;10.50;99.90;;;;;;4839092;29;20045;-81
2023/06/06 03:04:45;;;;;;;0.13;0.13;;;10.60;99.90;;;;;;4837850;29;20053;-81
2023/06/06 03:07:12;;;;;;;0.20;0.20;;;10.60;99.90;;;;;;4839772;29;20053;-81
2023/06/06 03:09:38;;;;;;;0.17;0.17;;;11.30;99.90;;;;;;4839596;29;20105;-80
2023/06/06 03:12:04;;;;;;;0.10;0.10;;;10.60;99.90;;;;;;4856646;29;20044;-81
2023/06/06 03:14:30;;;;;;;0.13;0.13;;;10.60;99.90;;;;;;4840350;29;20444;-81
2023/06/06 03:16:56;;;;;;;0.20;0.20;;;10.60;99.90;;;;;;4839967;29;20050;-81
2023/06/06 03:19:26;;;;;;;0.20;0.20;;;10.60;99.90;;;;;;4836480;29;20123;-81
2023/06/06 03:21:51;;;;;;;0.20;0.20;;;10.70;99.90;;;;;;4853108;29;20487;-81
2023/06/06 03:24:19;;;;;;;0.20;0.20;;;10.60;99.90;;;;;;4850386;29;21235;-81
2023/06/06 03:26:46;;;;;;;0.20;0.20;;;10.80;99.90;;;;;;4852766;29;20041;-81
2023/06/06 03:29:12;;;;;;;0.20;0.20;;;10.60;99.90;;;;;;4825971;29;20129;-81
2023/06/06 03:31:39;;;;;;;0.20;0.20;;;11.20;99.90;;;;;;4854982;29;20049;-81
2023/06/06 03:34:04;;;;;;;0.13;0.13;;;10.60;99.90;;;;;;4855539;29;20081;-81
2023/06/06 03:36:33;;;;;;;0.20;0.20;;;10.60;99.90;;;;;;4856840;29;20079;-80
2023/06/06 03:39:02;;;;;;;0.13;0.13;;;10.80;99.90;;;;;;4843600;29;20084;-82
2023/06/06 03:41:28;;;;;;;0.20;0.20;;;10.60;99.90;;;;;;4840510;29;20120;-81
2023/06/06 03:43:54;;;;;;;0.20;0.20;;;10.80;99.90;;;;;;4836770;29;20128;-81
2023/06/06 03:46:20;;;;;;;0.20;0.20;;;10.70;99.90;;;;;;4838401;29;20049;-81
2023/06/06 03:48:46;;;;;;;0.20;0.20;;;10.70;99.90;;;;;;4854134;29;20056;-82
2023/06/06 03:51:11;;;;;;;0.10;0.10;;;10.70;99.90;;;;;;4850456;29;20043;-81
2023/06/06 03:53:37;;;;;;;0.10;0.10;;;10.70;99.90;;;;;;4838780;29;20076;-81
2023/06/06 03:56:06;;;;;;;0.10;0.10;;;10.70;99.90;;;;;;4850456;29;20450;-81
2023/06/06 03:58:32;;;;;;;0.20;0.20;;;10.70;99.90;;;;;;4839915;29;20068;-81
2023/06/06 04:00:58;;;;;;;0.17;0.17;;;10.70;99.90;;;;;;4836717;29;20051;-81
2023/06/06 04:03:25;;;;;;;0.20;0.20;;;10.70;99.90;;;;;;4838195;29;20045;-81
2023/06/06 04:05:51;;;;;;;0.20;0.20;;;10.70;99.90;;;;;;4840546;29;20049;-82
2023/06/06 04:08:17;;;;;;;0.20;0.20;;;10.70;99.90;;;;;;4835903;29;20053;-83
2023/06/06 04:10:43;;;;;;;0.20;0.20;;;11.00;99.90;;;;;;4837816;29;20493;-82
2023/06/06 04:13:22;;;;;;;0.20;0.20;;;10.70;99.90;;;;;;4833075;29;20044;-81
2023/06/06 04:16:02;;;;;;;0.10;0.10;;;10.70;99.90;;;;;;4844597;29;20100;-81
2023/06/06 04:18:28;;;;;;;0.10;0.10;;;10.80;99.90;;;;;;4858914;29;20045;-81
2023/06/06 04:20:54;;;;;;;0.20;0.20;;;10.80;99.90;;;;;;4846987;29;20136;-81
2023/06/06 04:23:21;;;;;;;0.20;0.20;;;10.80;99.90;;;;;;4844196;29;20699;-82
2023/06/06 04:25:48;;;;;;;0.20;0.20;;;10.80;99.90;;;;;;4841091;29;20046;-81
2023/06/06 04:28:17;;;;;;;0.20;0.20;;;10.80;99.90;;;;;;4836816;29;20586;-81
2023/06/06 04:30:44;;;;;;;0.20;0.20;;;10.90;99.90;;;;;;4832411;29;20057;-81
2023/06/06 04:33:10;;;;;;;0.20;0.20;;;10.90;99.90;;;;;;4831384;29;20050;-82
2023/06/06 04:35:36;;;;;;;0.20;0.20;;;10.90;99.90;;;;;;4835938;29;20049;-82
2023/06/06 04:38:01;;;;;;;0.10;0.10;;;11.00;99.90;;;;;;4838610;29;20045;-81
2023/06/06 04:40:32;;;;;;;0.20;0.20;;;10.90;99.90;;;;;;4858600;29;20052;-81
2023/06/06 04:43:00;;;;;;;0.20;0.20;;;11.00;99.90;;;;;;4838470;29;20392;-81
2023/06/06 04:45:27;;;;;;;0.20;0.20;;;11.00;99.90;;;;;;4844199;29;20068;-81
2023/06/06 04:47:55;;;;;;;0.20;0.20;;;11.00;99.90;;;;;;4860032;29;20830;-82
2023/06/06 04:50:23;;;;;;;0.13;0.13;;;11.10;99.90;;;;;;4857706;29;20037;-81
2023/06/06 04:52:50;;;;;;;0.20;0.20;;;11.20;99.90;;;;;;4837735;29;20056;-81
2023/06/06 04:55:15;;;;;;;0.20;0.20;;;11.00;99.90;;;;;;4841489;29;20417;-81
2023/06/06 04:57:44;;;;;;;0.15;0.15;;;11.20;99.90;;;;;;4858717;29;20049;-82
2023/06/06 05:00:12;;;;;;;0.20;0.20;;;11.20;99.90;;;;;;4841485;29;20061;-81
2023/06/06 05:02:39;;;;;;;0.10;0.10;;;11.20;99.90;;;;;;4856935;29;20081;-81
2023/06/06 05:05:09;;;;;;;0.17;0.17;;;11.30;99.90;;;;;;4842048;29;20092;-82
2023/06/06 05:07:35;;;;;;;0.13;0.13;;;11.30;99.90;;;;;;4859072;29;20037;-82
2023/06/06 05:10:01;;;;;;;0.10;0.10;;;11.40;99.90;;;;;;4833357;29;20398;-81
2023/06/06 05:12:27;;;;;;;0.10;0.10;;;11.40;99.90;;;;;;4840945;29;20041;-82
2023/06/06 05:14:52;;;;;;;0.10;0.10;;;11.50;99.90;;;;;;4859232;29;20086;-82
2023/06/06 05:17:20;;;;;;;0.20;0.20;;;11.50;99.90;;;;;;4842216;29;20049;-82
2023/06/06 05:19:46;;;;;;;0.20;0.20;;;11.60;99.90;;;;;;4857726;29;20405;-81
2023/06/06 05:22:16;;;;;;;0.20;0.20;;;11.60;99.90;;;;;;4858412;29;20619;-82
2023/06/06 05:24:42;;;;;;;0.17;0.17;;;11.80;99.90;;;;;;4841289;29;20057;-81
2023/06/06 05:27:08;;;;;;;0.10;0.10;;;11.80;99.90;;;;;;4857050;29;20049;-81
2023/06/06 05:29:35;;;;;;;0.10;0.10;;;11.80;99.90;;;;;;4839789;29;20121;-81
2023/06/06 05:32:00;;;;;;;0.20;0.20;;;11.90;99.90;;;;;;4840817;29;20519;-82
2023/06/06 05:34:26;;;;;;;0.15;0.15;;;11.90;99.90;;;;;;4840905;29;20053;-82
2023/06/06 05:36:52;;;;;;;0.20;0.20;;;11.90;99.90;;;;;;4856713;29;20465;-82
2023/06/06 05:39:18;;;;;;;0.10;0.10;;;12.00;99.90;;;;;;4848426;29;20050;-82
2023/06/06 05:41:44;;;;;;;0.10;0.10;;;12.10;99.90;;;;;;4853414;29;20045;-82
2023/06/06 05:44:11;;;;;;;0.20;0.20;;;12.10;99.90;;;;;;4842285;29;20061;-83
2023/06/06 05:46:37;;;;;;;0.10;0.10;;;12.20;99.90;;;;;;4850460;29;20069;-82
2023/06/06 05:49:02;;;;;;;0.10;0.10;;;12.20;99.90;;;;;;4855952;29;20095;-81
2023/06/06 05:51:28;;;;;;;0.20;0.20;;;12.30;99.90;;;;;;4839344;29;20037;-81
2023/06/06 05:53:54;;;;;;;0.20;0.20;;;12.30;99.90;;;;;;4837806;29;20057;-82
2023/06/06 05:56:21;;;;;;;0.15;0.15;;;12.40;99.90;;;;;;4857640;29;20037;-83
2023/06/06 05:58:49;;;;;;;0.20;0.20;;;12.40;99.90;;;;;;4842260;29;20053;-82
2023/06/06 06:01:15;;;;;;;0.20;0.20;;;12.40;99.90;;;;;;4837003;29;20049;-82
2023/06/06 06:03:42;;;;;;;0.10;0.10;;;12.50;99.90;;;;;;4836315;29;20509;-82
2023/06/06 06:06:08;;;;;;;0.20;0.20;;;12.50;99.90;;;;;;4840448;29;20041;-82
2023/06/06 06:08:37;;;;;;;0.10;0.10;;;12.50;99.90;;;;;;4840090;29;20557;-82
2023/06/06 06:11:06;;;;;;;0.13;0.13;;;12.60;99.90;;;;;;4855226;29;20041;-81
2023/06/06 06:13:32;;;;;;;0.10;0.10;;;12.60;99.90;;;;;;4839410;29;20185;-82
2023/06/06 06:15:58;;;;;;;0.20;0.20;;;12.60;99.90;;;;;;4840987;29;20045;-83
2023/06/06 06:18:24;;;;;;;0.20;0.20;;;12.60;99.90;;;;;;4840806;29;20052;-82
2023/06/06 06:20:49;;;;;;;0.10;0.10;;;12.80;99.90;;;;;;4838406;29;20090;-84
2023/06/06 06:23:15;;;;;;;0.20;0.20;;;12.80;99.90;;;;;;4857335;29;20053;-81
2023/06/06 06:25:41;;;;;;;0.20;0.20;;;12.80;99.90;;;;;;4839942;29;20053;-82
2023/06/06 06:28:18;;;;;;;0.20;0.20;;;12.90;99.90;;;;;;4857227;29;20045;-82
2023/06/06 06:30:45;;;;;;;0.20;0.20;;;13.10;99.90;;;;;;4853988;29;20049;-84
2023/06/06 06:33:12;;;;;;;0.20;0.20;;;13.00;99.90;;;;;;4856653;29;20136;-82
2023/06/06 06:35:37;;;;;;;0.10;0.10;;;13.00;99.90;;;;;;4838659;29;20056;-83
2023/06/06 06:38:03;;;;;;;0.20;0.20;;;13.00;99.90;;;;;;4837451;29;20046;-83
2023/06/06 06:40:29;;;;;;;0.20;0.20;;;13.10;99.90;;;;;;4856343;29;20096;-83
2023/06/06 06:42:55;;;;;;;0.20;0.20;;;13.10;99.90;;;;;;4836049;29;20117;-82
2023/06/06 06:45:23;;;;;;;0.10;0.10;;;13.20;99.90;;;;;;4849566;29;20070;-82
2023/06/06 06:47:49;;;;;;;0.10;0.10;;;13.20;99.90;;;;;;4831418;29;20057;-82
2023/06/06 06:50:15;;;;;;;0.20;0.20;;;13.30;99.90;;;;;;4848742;29;20041;-82
2023/06/06 06:52:41;;;;;;;0.20;0.20;;;13.30;99.90;;;;;;4838390;29;20569;-82
2023/06/06 06:55:07;;;;;;;0.10;0.10;;;13.40;99.90;;;;;;4834850;29;20504;-81
2023/06/06 06:57:36;;;;;;;0.10;0.10;;;13.40;99.90;;;;;;4851656;29;20410;-81
2023/06/06 07:00:12;;;;;;;0.10;0.10;;;13.50;99.90;;;;;;4838748;29;20113;-85
2023/06/06 07:02:39;;;;;;;0.20;0.20;;;13.50;99.90;;;;;;4838462;29;20069;-84
2023/06/06 07:05:06;;;;;;;0.10;0.10;;;13.50;99.90;;;;;;4854070;29;20057;-83
2023/06/06 07:07:31;;;;;;;0.20;0.20;;;13.60;99.90;;;;;;4838729;29;20200;-82
2023/06/06 07:09:57;;;;;;;0.10;0.10;;;13.60;99.90;;;;;;4838439;29;20579;-82
2023/06/06 07:12:23;;;;;;;0.10;0.10;;;13.70;99.90;;;;;;4836754;29;20041;-82
2023/06/06 07:14:48;;;;;;;0.20;0.20;;;13.80;99.90;;;;;;4855769;29;20049;-83
2023/06/06 07:17:17;;;;;;;0.20;0.20;;;13.80;99.90;;;;;;4848058;29;20094;-83
2023/06/06 07:19:43;;;;;;;0.20;0.20;;;13.90;99.90;;;;;;4860446;29;20402;-84
2023/06/06 07:22:10;;;;;;;0.20;0.20;;;13.90;99.90;;;;;;4837110;29;20046;-81
2023/06/06 07:24:36;;;;;;;0.10;0.10;;;14.10;99.90;;;;;;4837197;29;20050;-82
2023/06/06 07:27:02;;;;;;;0.20;0.20;;;14.00;99.90;;;;;;4838330;29;20060;-82
2023/06/06 07:29:31;;;;;;;0.20;0.20;;;14.10;99.90;;;;;;4833150;29;20053;-83
2023/06/06 07:31:57;;;;;;;0.20;0.20;;;14.10;99.90;;;;;;4840293;29;20060;-83
2023/06/06 07:34:23;;;;;;;0.10;0.10;;;14.10;99.90;;;;;;4838781;29;20057;-85
2023/06/06 07:36:49;;;;;;;0.10;0.10;;;14.10;99.90;;;;;;4836881;29;20065;-83
2023/06/06 07:39:14;;;;;;;0.20;0.20;;;14.20;99.90;;;;;;4839429;29;20041;-83
2023/06/06 07:41:40;;;;;;;0.10;0.10;;;14.20;99.90;;;;;;4855929;29;20046;-83
2023/06/06 07:44:06;;;;;;;0.10;0.10;;;14.20;99.90;;;;;;4838752;29;20092;-82
2023/06/06 07:46:32;;;;;;;0.10;0.10;;;14.20;99.90;;;;;;4837807;29;20478;-82
2023/06/06 07:48:58;;;;;;;0.10;0.10;;;14.20;99.90;;;;;;4852506;29;20126;-82
2023/06/06 07:51:25;;;;;;;0.10;0.10;;;14.30;99.90;;;;;;4833349;29;20042;-82
2023/06/06 07:53:51;;;;;;;0.20;0.20;;;14.30;99.90;;;;;;4842894;29;20046;-83
2023/06/06 07:56:18;;;;;;;0.20;0.20;;;14.40;99.90;;;;;;4851034;29;20218;-81
2023/06/06 07:58:52;;;;;;;0.10;0.10;;;14.40;99.90;;;;;;4843306;29;20053;-83
2023/06/06 08:01:23;;;;;;;0.20;0.20;;;14.40;99.90;;;;;;4861660;29;20450;-83
2023/06/06 08:03:49;;;;;;;0.20;0.20;;;14.50;99.90;;;;;;4842080;29;20162;-83
2023/06/06 08:06:18;;;;;;;0.10;0.10;;;14.50;99.90;;;;;;4840684;29;20461;-75
2023/06/06 08:08:46;;;;;;;0.10;0.10;;;14.50;99.90;;;;;;4854482;29;20418;-75
2023/06/06 08:11:12;;;;;;;0.10;0.10;;;14.50;99.90;;;;;;4840914;29;20616;-75
2023/06/06 08:13:38;;;;;;;0.20;0.20;;;14.60;99.90;;;;;;4839627;29;20080;-76
2023/06/06 08:16:04;;;;;;;0.20;0.20;;;14.60;99.90;;;;;;4858245;29;20072;-75
2023/06/06 08:18:29;;;;;;;0.10;0.10;;;14.60;99.90;;;;;;4842234;29;20053;-76
2023/06/06 08:20:55;;;;;;;0.20;0.20;;;14.70;99.90;;;;;;4841696;29;20057;-76
2023/06/06 08:23:23;;;;;;;0.20;0.20;;;14.70;99.90;;;;;;4840612;29;20041;-77
2023/06/06 08:25:48;;;;;;;0.13;0.13;;;14.80;99.90;;;;;;4860693;29;20053;-76
2023/06/06 08:28:15;;;;;;;0.20;0.20;;;14.80;99.90;;;;;;4843389;29;20383;-76
2023/06/06 08:30:40;;;;;;;0.10;0.10;;;14.80;99.90;;;;;;4843908;29;20102;-76
2023/06/06 08:33:06;;;;;;;0.10;0.10;;;14.80;99.90;;;;;;4859099;29;20769;-75
2023/06/06 08:35:32;;;;;;;0.20;0.20;;;14.80;99.90;;;;;;4842447;29;20049;-76
2023/06/06 08:37:57;;;;;;;0.10;0.10;;;14.90;99.90;;;;;;4855815;29;20367;-76
2023/06/06 08:40:23;;;;;;;1.45;0.52;;;14.90;99.90;;;;;;4849313;29;20063;-76
2023/06/06 08:42:51;;;;;;;0.20;0.20;;;15.00;99.90;;;;;;4861301;29;20069;-77
2023/06/06 08:45:21;;;;;;;0.10;0.10;;;15.00;99.90;;;;;;4847166;29;20069;-75
2023/06/06 08:47:51;;;;;;;0.10;0.10;;;15.10;99.90;;;;;;4853646;29;20054;-75
2023/06/06 08:50:17;;;;;;;0.15;0.15;;;15.10;99.90;;;;;;4838135;29;20494;-75
2023/06/06 08:52:43;;;;;;;0.20;0.20;;;15.10;99.90;;;;;;4858336;29;20061;-76
2023/06/06 08:55:09;;;;;;;0.20;0.20;;;15.20;99.90;;;;;;4837980;29;20063;-75
2023/06/06 08:57:41;;;;;;;0.20;0.20;;;15.30;99.90;;;;;;4845515;29;20044;-76
2023/06/06 09:00:21;;;;;;;0.10;0.10;;;15.30;99.90;;;;;;4850011;29;20048;-78
2023/06/06 09:02:47;;;;;;;0.13;0.13;;;15.30;99.90;;;;;;4851174;29;20152;-75
2023/06/06 09:05:17;;;;;;;0.20;0.20;;;15.30;99.90;;;;;;4842995;29;20046;-75
2023/06/06 09:07:43;;;;;;;0.20;0.20;;;15.40;99.90;;;;;;4840662;29;20108;-77
2023/06/06 09:10:09;;;;;;;0.10;0.10;;;15.40;99.90;;;;;;4837304;29;20057;-76
2023/06/06 09:12:42;;;;;;;0.10;0.10;;;15.40;99.90;;;;;;4840112;29;20502;-75
2023/06/06 09:15:09;;;;;;;0.20;0.20;;;15.50;99.90;;;;;;4857076;29;20038;-75
2023/06/06 09:17:36;;;;;;;0.10;0.10;;;15.50;99.90;;;;;;4853811;29;20041;-75
2023/06/06 09:20:13;;;;;;;0.10;0.10;;;15.40;99.90;;;;;;4853318;29;20060;-75
2023/06/06 09:22:48;;;;;;;0.13;0.13;;;15.60;99.90;;;;;;4838958;29;20581;-76
2023/06/06 09:25:25;;;;;;;0.13;0.13;;;15.50;99.90;;;;;;4840760;29;20053;-77
2023/06/06 09:28:18;;;;;;;0.20;0.20;;;15.60;99.90;;;;;;4832849;29;20058;-76
2023/06/06 09:30:43;;;;;;;0.10;0.10;;;15.70;99.90;;;;;;4841778;29;20064;-77
2023/06/06 09:33:10;;;;;;;0.15;0.15;;;15.70;99.90;;;;;;4841512;29;20106;-76
2023/06/06 09:35:37;;;;;;;0.10;0.10;;;15.70;99.90;;;;;;4844832;29;20061;-77
2023/06/06 09:38:15;;;;;;;0.10;0.10;;;15.70;99.90;;;;;;4850674;29;20046;-78
2023/06/06 09:40:52;;;;;;;0.20;0.20;;;15.80;99.90;;;;;;4840693;29;20073;-77
2023/06/06 09:43:26;;;;;;;0.10;0.10;;;15.80;99.90;;;;;;4841908;29;20397;-76
2023/06/06 09:45:54;;;;;;;0.10;0.10;;;15.80;99.90;;;;;;4856023;29;20482;-77
2023/06/06 09:48:23;;;;;;;0.20;0.20;;;15.90;99.90;;;;;;4844753;29;20053;-76
2023/06/06 09:50:50;;;;;;;0.20;0.20;;;15.90;99.90;;;;;;4852397;29;20064;-76
2023/06/06 09:53:16;;;;;;;0.10;0.10;;;15.90;99.90;;;;;;4855571;29;20105;-77
2023/06/06 09:55:43;;;;;;;0.10;0.10;;;16.00;99.90;;;;;;4835803;29;20057;-76
2023/06/06 09:58:13;;;;;;;0.20;0.20;;;16.00;99.90;;;;;;4851666;29;20037;-77
2023/06/06 10:00:38;;;;;;;0.10;0.10;;;16.00;99.90;;;;;;4854901;29;20041;-77
2023/06/06 10:03:06;;;;;;;0.10;0.10;;;16.10;99.90;;;;;;4855609;29;20056;-77
2023/06/06 10:05:32;;;;;;;0.20;0.20;;;16.10;99.90;;;;;;4856789;29;20494;-77
2023/06/06 10:07:58;;;;;;;0.15;0.15;;;16.10;99.90;;;;;;4840770;29;20051;-76
2023/06/06 10:10:24;;;;;;;0.20;0.20;;;16.10;99.90;;;;;;4839878;29;20181;-76
2023/06/06 10:12:53;;;;;;;0.10;0.10;;;16.20;99.90;;;;;;4832952;29;20057;-76
2023/06/06 10:15:20;;;;;;;0.10;0.10;;;16.20;99.90;;;;;;4839125;29;20050;-77
2023/06/06 10:17:46;;;;;;;0.20;0.20;;;16.20;99.90;;;;;;4835154;29;20113;-77
2023/06/06 10:20:12;;;;;;;0.10;0.10;;;16.20;99.90;;;;;;4847756;29;20046;-78
2023/06/06 10:22:39;;;;;;;0.10;0.10;;;16.30;99.90;;;;;;4840443;29;20137;-76
2023/06/06 10:25:09;;;;;;;0.20;0.20;;;16.30;99.90;;;;;;4856954;29;20104;-78
2023/06/06 10:27:57;;;;;;;0.22;0.20;;;16.30;99.90;;;;;;4838704;29;20077;-78
2023/06/06 10:30:43;;;;;;;0.20;0.20;;;16.30;99.90;;;;;;4837512;29;20459;-76
2023/06/06 10:33:21;;;;;;;0.20;0.20;;;16.40;99.90;;;;;;4855257;29;20457;-77
2023/06/06 10:35:50;;;;;;;0.13;0.13;;;16.40;99.90;;;;;;4839999;29;20107;-77
2023/06/06 10:38:16;;;;;;;0.17;0.17;;;16.50;99.90;;;;;;4836792;29;20053;-76
2023/06/06 10:40:54;;;;;;;0.20;0.20;;;16.50;99.90;;;;;;4835586;29;20409;-77
2023/06/06 10:43:41;;;;;;;0.10;0.10;;;16.50;99.90;;;;;;4850112;29;20628;-76
2023/06/06 10:46:07;;;;;;;0.20;0.20;;;16.50;99.90;;;;;;4839001;29;20116;-76
2023/06/06 10:48:45;;;;;;;0.10;0.10;;;16.60;99.90;;;;;;4833224;29;20129;-76
2023/06/06 10:51:34;;;;;;;0.10;0.10;;;16.60;99.90;;;;;;4856284;29;20064;-77
2023/06/06 10:54:19;;;;;;;0.10;0.10;;;16.70;99.90;;;;;;4837289;29;20084;-78
2023/06/06 10:56:50;;;;;;;0.20;0.20;;;16.70;99.90;;;;;;4850957;29;20085;-76
2023/06/06 10:59:16;;;;;;;;;;;16.70;99.90;;;;;;4834332;29;20053;-78
2023/06/06 11:01:44;;;;;;;0.10;0.10;;;16.80;99.90;;;;;;4838544;29;19932;-77
2023/06/06 11:04:23;;;;;;;0.20;0.20;;;16.80;99.90;;;;;;4838018;29;20121;-77
2023/06/06 11:06:51;;;;;;;0.20;0.20;;;16.90;99.90;;;;;;4856597;29;20518;-76
2023/06/06 11:09:22;;;;;;;0.10;0.10;;;16.90;99.90;;;;;;4833740;29;20124;-77
2023/06/06 11:11:48;;;;;;;0.20;0.20;;;17.00;99.90;;;;;;4852868;29;20046;-78
2023/06/06 11:14:18;;;;;;;0.20;0.20;;;17.00;99.90;;;;;;4838568;29;20048;-77
2023/06/06 11:16:44;;;;;;;0.10;0.10;;;17.00;99.90;;;;;;4854851;29;20402;-76
2023/06/06 11:19:18;;;;;;;0.20;0.20;;;17.10;99.90;;;;;;4831087;29;20050;-77
2023/06/06 11:21:48;;;;;;;0.17;0.17;;;17.20;99.90;;;;;;4832676;29;20045;-77
2023/06/06 11:24:15;;;;;;;0.20;0.20;;;17.30;99.90;;;;;;4839027;29;20080;-75
2023/06/06 11:26:42;;;;;;;0.20;0.20;;;17.30;99.90;;;;;;4833323;29;20695;-77
2023/06/06 11:29:09;;;;;;;0.20;0.20;;;17.30;99.90;;;;;;4852130;29;20435;-76
2023/06/06 11:31:36;;;;;;;0.15;0.15;;;17.40;99.90;;;;;;4851043;29;20402;-76
2023/06/06 11:34:06;;;;;;;0.20;0.20;;;17.40;99.90;;;;;;4838304;29;20096;-77
2023/06/06 11:36:34;;;;;;;0.20;0.20;;;17.50;99.90;;;;;;4851591;29;20079;-77
2023/06/06 11:39:01;;;;;;;0.20;0.20;;;17.50;99.90;;;;;;4853368;29;20439;-77
2023/06/06 11:41:30;;;;;;;0.10;0.10;;;17.60;99.90;;;;;;4836690;29;20049;-76
2023/06/06 11:43:55;;;;;;;0.17;0.17;;;17.70;99.90;;;;;;4850659;29;20392;-76
2023/06/06 11:46:21;;;;;;;0.20;0.20;;;17.70;99.90;;;;;;4855775;29;20045;-77
2023/06/06 11:48:56;;;;;;;0.20;0.20;;;17.80;99.90;;;;;;4833831;29;20455;-77
2023/06/06 11:51:22;;;;;;;0.20;0.20;;;17.80;99.90;;;;;;4850439;29;20053;-77
2023/06/06 11:53:48;;;;;;;0.10;0.10;;;17.80;99.90;;;;;;4835789;29;20060;-77
2023/06/06 11:56:18;;;;;;;0.20;0.20;;;17.90;99.90;;;;;;4835287;29;20128;-76
2023/06/06 11:58:43;;;;;;;0.20;0.20;;;17.90;99.90;;;;;;4847468;29;20490;-76
2023/06/06 12:01:11;;;;;;;0.20;0.20;;;17.90;99.80;;;;;;4839159;29;20049;-77
2023/06/06 12:03:40;;;;;;;0.20;0.20;;;17.90;99.80;;;;;;4837905;29;20046;-77
2023/06/06 12:06:06;;;;;;;0.20;0.20;;;18.00;99.80;;;;;;4839217;29;20391;-76
2023/06/06 12:08:34;;;;;;;0.20;0.20;;;18.00;99.90;;;;;;4839768;29;20490;-77
2023/06/06 12:11:22;;;;;;;0.17;0.17;;;18.10;99.90;;;;;;4853663;29;20081;-77
2023/06/06 12:13:48;;;;;;;0.17;0.17;;;18.20;99.90;;;;;;4831993;29;20510;-77
2023/06/06 12:16:26;;;;;;;0.20;0.20;;;18.30;99.90;;;;;;4829916;29;20531;-77
2023/06/06 12:18:52;;;;;;;0.20;0.20;;;18.30;99.80;;;;;;4835509;29;20059;-77
2023/06/06 12:21:18;;;;;;;0.10;0.10;;;18.30;99.60;;;;;;4848980;29;20053;-76
2023/06/06 12:23:45;;;;;;;0.20;0.20;;;18.40;99.60;;;;;;4858271;29;20042;-76
2023/06/06 12:26:16;;;;;;;0.20;0.20;;;18.50;99.60;;;;;;4842246;29;20046;-77
2023/06/06 12:28:59;;;;;;;0.10;0.10;;;18.60;99.20;;;;;;4832148;29;20105;-76
2023/06/06 12:31:26;;;;;;;0.10;0.10;;;18.60;99.40;;;;;;4854355;29;20049;-78
2023/06/06 12:33:57;;;;;;;0.10;0.10;;;18.70;99.30;;;;;;4836788;29;20088;-75
2023/06/06 12:36:25;;;;;;;0.20;0.20;;;18.70;99.20;;;;;;4838115;29;20042;-77
2023/06/06 12:39:03;;;;;;;0.20;0.20;;;18.80;99.50;;;;;;4838612;29;20486;-74
2023/06/06 12:41:41;;;;;;;0.20;0.20;;;18.90;99.20;;;;;;4834997;29;20152;-75
2023/06/06 12:44:11;;;;;;;0.20;0.20;;;19.00;99.10;;;;;;4850512;29;20061;-77
2023/06/06 12:46:38;;;;;;;0.22;0.22;;;19.10;99.00;;;;;;4843531;29;20045;-75
2023/06/06 12:49:04;;;;;;;0.13;0.13;;;19.10;98.60;;;;;;4857834;29;20052;-76
2023/06/06 12:51:30;;;;;;;0.20;0.20;;;19.10;98.50;;;;;;4843304;29;20052;-76